sensor_id;sensor_type;location;lat;lon;timestamp;P1;durP1;ratioP1;P2;durP2;ratioP2
60979;SDS011;46851;49.160;8.980;2022-10-16T00:01:25;3.90;;;1.38;;
60979;SDS011;46851;49.160;8.980;2022-10-16T00:03:51;2.13;;;1.10;;
60979;SDS011;46851;49.160;8.980;2022-10-16T00:06:18;1.77;;;1.20;;
60979;SDS011;46851;49.160;8.980;2022-10-16T00:08:44;2.78;;;1.00;;
60979;SDS011;46851;49.160;8.980;2022-10-16T00:11:12;2.15;;;1.45;;
60979;SDS011;46851;49.160;8.980;2022-10-16T00:13:39;3.60;;;1.30;;
60979;SDS011;46851;49.160;8.980;2022-10-16T00:16:05;7.30;;;1.67;;
60979;SDS011;46851;49.160;8.980;2022-10-16T00:18:31;3.60;;;1.00;;
60979;SDS011;46851;49.160;8.980;2022-10-16T00:21:02;1.73;;;1.00;;
60979;SDS011;46851;49.160;8.980;2022-10-16T00:23:28;3.25;;;1.10;;
60979;SDS011;46851;49.160;8.980;2022-10-16T00:25:55;0.90;;;0.90;;
60979;SDS011;46851;49.160;8.980;2022-10-16T00:28:21;2.90;;;1.20;;
60979;SDS011;46851;49.160;8.980;2022-10-16T00:30:47;3.28;;;0.98;;
60979;SDS011;46851;49.160;8.980;2022-10-16T00:33:13;2.00;;;1.05;;
60979;SDS011;46851;49.160;8.980;2022-10-16T00:35:39;2.50;;;0.98;;
60979;SDS011;46851;49.160;8.980;2022-10-16T00:38:05;1.35;;;1.00;;
60979;SDS011;46851;49.160;8.980;2022-10-16T00:40:31;4.32;;;0.90;;
60979;SDS011;46851;49.160;8.980;2022-10-16T00:42:57;2.10;;;1.08;;
60979;SDS011;46851;49.160;8.980;2022-10-16T00:45:23;2.10;;;1.20;;
60979;SDS011;46851;49.160;8.980;2022-10-16T00:47:50;1.95;;;0.98;;
60979;SDS011;46851;49.160;8.980;2022-10-16T00:50:26;3.88;;;1.20;;
60979;SDS011;46851;49.160;8.980;2022-10-16T00:52:52;2.10;;;0.90;;
60979;SDS011;46851;49.160;8.980;2022-10-16T00:55:19;3.72;;;1.08;;
60979;SDS011;46851;49.160;8.980;2022-10-16T00:57:45;5.53;;;0.93;;
60979;SDS011;46851;49.160;8.980;2022-10-16T01:00:13;3.67;;;1.00;;
60979;SDS011;46851;49.160;8.980;2022-10-16T01:02:40;1.20;;;1.00;;
60979;SDS011;46851;49.160;8.980;2022-10-16T01:05:06;1.75;;;1.10;;
60979;SDS011;46851;49.160;8.980;2022-10-16T01:15:32;1.77;;;0.82;;
60979;SDS011;46851;49.160;8.980;2022-10-16T01:18:07;4.28;;;1.10;;
60979;SDS011;46851;49.160;8.980;2022-10-16T01:20:42;5.45;;;1.20;;
60979;SDS011;46851;49.160;8.980;2022-10-16T01:25:39;1.65;;;0.90;;
60979;SDS011;46851;49.160;8.980;2022-10-16T01:28:09;6.43;;;1.27;;
60979;SDS011;46851;49.160;8.980;2022-10-16T01:30:37;3.75;;;1.08;;
60979;SDS011;46851;49.160;8.980;2022-10-16T01:33:08;2.65;;;1.10;;
60979;SDS011;46851;49.160;8.980;2022-10-16T01:35:36;3.80;;;1.40;;
60979;SDS011;46851;49.160;8.980;2022-10-16T01:40:29;3.30;;;1.15;;
60979;SDS011;46851;49.160;8.980;2022-10-16T01:45:40;2.28;;;0.80;;
60979;SDS011;46851;49.160;8.980;2022-10-16T01:48:07;2.40;;;1.02;;
60979;SDS011;46851;49.160;8.980;2022-10-16T01:50:35;8.70;;;1.23;;
60979;SDS011;46851;49.160;8.980;2022-10-16T01:53:03;1.85;;;0.85;;
60979;SDS011;46851;49.160;8.980;2022-10-16T01:55:31;1.13;;;0.90;;
60979;SDS011;46851;49.160;8.980;2022-10-16T01:57:58;1.33;;;0.80;;
60979;SDS011;46851;49.160;8.980;2022-10-16T02:00:25;6.32;;;1.25;;
60979;SDS011;46851;49.160;8.980;2022-10-16T02:02:52;2.33;;;1.00;;
60979;SDS011;46851;49.160;8.980;2022-10-16T02:05:27;2.15;;;0.80;;
60979;SDS011;46851;49.160;8.980;2022-10-16T02:07:54;5.57;;;0.80;;
60979;SDS011;46851;49.160;8.980;2022-10-16T02:10:21;2.78;;;0.80;;
60979;SDS011;46851;49.160;8.980;2022-10-16T02:12:49;3.95;;;1.00;;
60979;SDS011;46851;49.160;8.980;2022-10-16T02:15:16;2.28;;;0.93;;
60979;SDS011;46851;49.160;8.980;2022-10-16T02:17:42;4.00;;;1.05;;
60979;SDS011;46851;49.160;8.980;2022-10-16T02:20:08;2.83;;;1.10;;
60979;SDS011;46851;49.160;8.980;2022-10-16T02:22:45;2.97;;;0.98;;
60979;SDS011;46851;49.160;8.980;2022-10-16T02:25:16;3.28;;;1.13;;
60979;SDS011;46851;49.160;8.980;2022-10-16T02:28:06;3.92;;;1.00;;
60979;SDS011;46851;49.160;8.980;2022-10-16T02:30:33;2.25;;;0.90;;
60979;SDS011;46851;49.160;8.980;2022-10-16T02:33:01;3.63;;;0.98;;
60979;SDS011;46851;49.160;8.980;2022-10-16T02:35:29;2.75;;;0.90;;
60979;SDS011;46851;49.160;8.980;2022-10-16T02:37:56;1.70;;;0.88;;
60979;SDS011;46851;49.160;8.980;2022-10-16T02:40:22;1.75;;;1.17;;
60979;SDS011;46851;49.160;8.980;2022-10-16T02:42:50;3.45;;;0.90;;
60979;SDS011;46851;49.160;8.980;2022-10-16T02:45:16;4.78;;;0.80;;
60979;SDS011;46851;49.160;8.980;2022-10-16T02:47:42;2.25;;;1.00;;
60979;SDS011;46851;49.160;8.980;2022-10-16T02:50:08;1.45;;;0.90;;
60979;SDS011;46851;49.160;8.980;2022-10-16T02:52:34;2.15;;;0.80;;
60979;SDS011;46851;49.160;8.980;2022-10-16T02:55:00;3.33;;;1.40;;
60979;SDS011;46851;49.160;8.980;2022-10-16T02:57:26;7.18;;;1.00;;
60979;SDS011;46851;49.160;8.980;2022-10-16T02:59:53;3.47;;;0.82;;
60979;SDS011;46851;49.160;8.980;2022-10-16T03:02:19;1.75;;;1.13;;
60979;SDS011;46851;49.160;8.980;2022-10-16T03:04:45;2.08;;;1.15;;
60979;SDS011;46851;49.160;8.980;2022-10-16T03:07:11;1.80;;;0.98;;
60979;SDS011;46851;49.160;8.980;2022-10-16T03:09:37;3.90;;;1.00;;
60979;SDS011;46851;49.160;8.980;2022-10-16T03:12:03;1.98;;;1.00;;
60979;SDS011;46851;49.160;8.980;2022-10-16T03:14:29;5.38;;;1.15;;
60979;SDS011;46851;49.160;8.980;2022-10-16T03:16:55;2.42;;;1.00;;
60979;SDS011;46851;49.160;8.980;2022-10-16T03:19:21;3.13;;;0.90;;
60979;SDS011;46851;49.160;8.980;2022-10-16T03:21:47;3.63;;;1.10;;
60979;SDS011;46851;49.160;8.980;2022-10-16T03:24:13;2.58;;;0.95;;
60979;SDS011;46851;49.160;8.980;2022-10-16T03:26:39;1.90;;;1.05;;
60979;SDS011;46851;49.160;8.980;2022-10-16T03:29:05;2.70;;;0.98;;
60979;SDS011;46851;49.160;8.980;2022-10-16T03:31:31;2.38;;;0.90;;
60979;SDS011;46851;49.160;8.980;2022-10-16T03:33:58;1.80;;;1.00;;
60979;SDS011;46851;49.160;8.980;2022-10-16T03:36:24;4.60;;;1.00;;
60979;SDS011;46851;49.160;8.980;2022-10-16T03:38:50;1.20;;;0.85;;
60979;SDS011;46851;49.160;8.980;2022-10-16T03:41:16;10.13;;;1.00;;
60979;SDS011;46851;49.160;8.980;2022-10-16T03:43:42;2.45;;;0.98;;
60979;SDS011;46851;49.160;8.980;2022-10-16T03:46:08;1.15;;;0.82;;
60979;SDS011;46851;49.160;8.980;2022-10-16T03:48:34;2.65;;;1.00;;
60979;SDS011;46851;49.160;8.980;2022-10-16T03:51:00;7.93;;;1.00;;
60979;SDS011;46851;49.160;8.980;2022-10-16T03:53:26;6.68;;;1.00;;
60979;SDS011;46851;49.160;8.980;2022-10-16T03:55:52;1.65;;;1.10;;
60979;SDS011;46851;49.160;8.980;2022-10-16T03:58:18;2.25;;;1.20;;
60979;SDS011;46851;49.160;8.980;2022-10-16T04:00:45;1.20;;;1.08;;
60979;SDS011;46851;49.160;8.980;2022-10-16T04:03:12;3.08;;;0.90;;
60979;SDS011;46851;49.160;8.980;2022-10-16T04:05:38;3.97;;;1.10;;
60979;SDS011;46851;49.160;8.980;2022-10-16T04:08:04;1.95;;;1.10;;
60979;SDS011;46851;49.160;8.980;2022-10-16T04:10:30;2.70;;;1.10;;
60979;SDS011;46851;49.160;8.980;2022-10-16T04:12:56;2.05;;;0.93;;
60979;SDS011;46851;49.160;8.980;2022-10-16T04:15:23;2.85;;;1.00;;
60979;SDS011;46851;49.160;8.980;2022-10-16T04:17:49;4.07;;;0.98;;
60979;SDS011;46851;49.160;8.980;2022-10-16T04:20:15;6.85;;;1.13;;
60979;SDS011;46851;49.160;8.980;2022-10-16T04:22:41;9.05;;;1.20;;
60979;SDS011;46851;49.160;8.980;2022-10-16T04:25:07;6.72;;;1.13;;
60979;SDS011;46851;49.160;8.980;2022-10-16T04:27:34;1.10;;;0.93;;
60979;SDS011;46851;49.160;8.980;2022-10-16T04:30:00;3.15;;;1.05;;
60979;SDS011;46851;49.160;8.980;2022-10-16T04:32:26;3.00;;;1.00;;
60979;SDS011;46851;49.160;8.980;2022-10-16T04:34:52;6.90;;;1.00;;
60979;SDS011;46851;49.160;8.980;2022-10-16T04:37:18;3.20;;;1.00;;
60979;SDS011;46851;49.160;8.980;2022-10-16T04:39:45;2.90;;;1.02;;
60979;SDS011;46851;49.160;8.980;2022-10-16T04:42:11;3.47;;;2.00;;
60979;SDS011;46851;49.160;8.980;2022-10-16T04:44:37;3.53;;;1.25;;
60979;SDS011;46851;49.160;8.980;2022-10-16T04:47:03;4.47;;;1.10;;
60979;SDS011;46851;49.160;8.980;2022-10-16T04:49:29;2.78;;;1.08;;
60979;SDS011;46851;49.160;8.980;2022-10-16T04:51:55;2.05;;;0.90;;
60979;SDS011;46851;49.160;8.980;2022-10-16T04:54:21;3.47;;;0.90;;
60979;SDS011;46851;49.160;8.980;2022-10-16T04:56:47;4.75;;;1.20;;
60979;SDS011;46851;49.160;8.980;2022-10-16T04:59:16;4.38;;;1.30;;
60979;SDS011;46851;49.160;8.980;2022-10-16T05:01:42;5.65;;;1.77;;
60979;SDS011;46851;49.160;8.980;2022-10-16T05:04:08;5.05;;;1.60;;
60979;SDS011;46851;49.160;8.980;2022-10-16T05:06:34;3.70;;;1.80;;
60979;SDS011;46851;49.160;8.980;2022-10-16T05:09:01;5.22;;;1.25;;
60979;SDS011;46851;49.160;8.980;2022-10-16T05:11:27;3.33;;;1.13;;
60979;SDS011;46851;49.160;8.980;2022-10-16T05:13:53;2.10;;;0.93;;
60979;SDS011;46851;49.160;8.980;2022-10-16T05:16:19;3.97;;;1.25;;
60979;SDS011;46851;49.160;8.980;2022-10-16T05:18:45;5.93;;;1.30;;
60979;SDS011;46851;49.160;8.980;2022-10-16T05:21:11;7.13;;;1.35;;
60979;SDS011;46851;49.160;8.980;2022-10-16T05:23:37;1.63;;;1.05;;
60979;SDS011;46851;49.160;8.980;2022-10-16T05:26:03;4.20;;;1.50;;
60979;SDS011;46851;49.160;8.980;2022-10-16T05:28:29;3.78;;;1.13;;
60979;SDS011;46851;49.160;8.980;2022-10-16T05:30:56;3.58;;;1.08;;
60979;SDS011;46851;49.160;8.980;2022-10-16T05:33:23;1.63;;;1.10;;
60979;SDS011;46851;49.160;8.980;2022-10-16T05:35:49;3.47;;;1.20;;
60979;SDS011;46851;49.160;8.980;2022-10-16T05:38:16;4.30;;;1.30;;
60979;SDS011;46851;49.160;8.980;2022-10-16T05:40:42;2.53;;;1.13;;
60979;SDS011;46851;49.160;8.980;2022-10-16T05:43:08;3.28;;;1.42;;
60979;SDS011;46851;49.160;8.980;2022-10-16T05:45:34;4.22;;;1.48;;
60979;SDS011;46851;49.160;8.980;2022-10-16T05:48:00;3.13;;;1.10;;
60979;SDS011;46851;49.160;8.980;2022-10-16T05:50:26;6.75;;;1.40;;
60979;SDS011;46851;49.160;8.980;2022-10-16T05:52:52;4.07;;;1.50;;
60979;SDS011;46851;49.160;8.980;2022-10-16T05:55:18;2.90;;;1.17;;
60979;SDS011;46851;49.160;8.980;2022-10-16T05:57:44;2.90;;;1.38;;
60979;SDS011;46851;49.160;8.980;2022-10-16T06:00:10;5.47;;;1.42;;
60979;SDS011;46851;49.160;8.980;2022-10-16T06:02:36;2.60;;;1.40;;
60979;SDS011;46851;49.160;8.980;2022-10-16T06:05:03;5.75;;;1.60;;
60979;SDS011;46851;49.160;8.980;2022-10-16T06:07:29;3.65;;;1.58;;
60979;SDS011;46851;49.160;8.980;2022-10-16T06:09:55;6.05;;;1.30;;
60979;SDS011;46851;49.160;8.980;2022-10-16T06:12:21;4.45;;;1.42;;
60979;SDS011;46851;49.160;8.980;2022-10-16T06:14:47;3.17;;;1.20;;
60979;SDS011;46851;49.160;8.980;2022-10-16T06:17:13;3.65;;;1.42;;
60979;SDS011;46851;49.160;8.980;2022-10-16T06:19:39;2.40;;;1.50;;
60979;SDS011;46851;49.160;8.980;2022-10-16T06:22:06;1.75;;;1.15;;
60979;SDS011;46851;49.160;8.980;2022-10-16T06:24:32;8.82;;;1.63;;
60979;SDS011;46851;49.160;8.980;2022-10-16T06:26:58;3.83;;;1.63;;
60979;SDS011;46851;49.160;8.980;2022-10-16T06:29:24;4.32;;;1.23;;
60979;SDS011;46851;49.160;8.980;2022-10-16T06:31:50;3.88;;;1.73;;
60979;SDS011;46851;49.160;8.980;2022-10-16T06:34:16;3.55;;;1.60;;
60979;SDS011;46851;49.160;8.980;2022-10-16T06:36:42;4.38;;;1.67;;
60979;SDS011;46851;49.160;8.980;2022-10-16T06:39:08;5.85;;;1.60;;
60979;SDS011;46851;49.160;8.980;2022-10-16T06:41:34;4.63;;;1.60;;
60979;SDS011;46851;49.160;8.980;2022-10-16T06:44:00;3.65;;;1.65;;
60979;SDS011;46851;49.160;8.980;2022-10-16T06:46:26;2.10;;;1.60;;
60979;SDS011;46851;49.160;8.980;2022-10-16T06:48:53;4.75;;;2.30;;
60979;SDS011;46851;49.160;8.980;2022-10-16T06:51:22;8.85;;;3.33;;
60979;SDS011;46851;49.160;8.980;2022-10-16T06:53:49;6.13;;;2.20;;
60979;SDS011;46851;49.160;8.980;2022-10-16T06:56:20;4.50;;;1.65;;
60979;SDS011;46851;49.160;8.980;2022-10-16T06:58:47;5.97;;;2.22;;
60979;SDS011;46851;49.160;8.980;2022-10-16T07:01:14;2.25;;;1.65;;
60979;SDS011;46851;49.160;8.980;2022-10-16T07:03:41;4.15;;;1.65;;
60979;SDS011;46851;49.160;8.980;2022-10-16T07:06:07;5.45;;;2.33;;
60979;SDS011;46851;49.160;8.980;2022-10-16T07:08:34;1.83;;;1.60;;
60979;SDS011;46851;49.160;8.980;2022-10-16T07:11:01;7.82;;;1.90;;
60979;SDS011;46851;49.160;8.980;2022-10-16T07:13:27;3.47;;;1.70;;
60979;SDS011;46851;49.160;8.980;2022-10-16T07:15:53;3.08;;;1.60;;
60979;SDS011;46851;49.160;8.980;2022-10-16T07:18:19;3.53;;;1.73;;
60979;SDS011;46851;49.160;8.980;2022-10-16T07:20:46;4.47;;;1.90;;
60979;SDS011;46851;49.160;8.980;2022-10-16T07:23:12;3.30;;;2.17;;
60979;SDS011;46851;49.160;8.980;2022-10-16T07:25:38;3.05;;;1.98;;
60979;SDS011;46851;49.160;8.980;2022-10-16T07:28:04;2.05;;;1.63;;
60979;SDS011;46851;49.160;8.980;2022-10-16T07:30:30;5.53;;;2.00;;
60979;SDS011;46851;49.160;8.980;2022-10-16T07:33:00;4.40;;;2.08;;
60979;SDS011;46851;49.160;8.980;2022-10-16T07:35:26;4.88;;;1.60;;
60979;SDS011;46851;49.160;8.980;2022-10-16T07:37:52;3.05;;;1.60;;
60979;SDS011;46851;49.160;8.980;2022-10-16T07:40:18;6.63;;;2.38;;
60979;SDS011;46851;49.160;8.980;2022-10-16T07:42:44;5.45;;;2.65;;
60979;SDS011;46851;49.160;8.980;2022-10-16T07:45:10;5.57;;;2.00;;
60979;SDS011;46851;49.160;8.980;2022-10-16T07:47:36;5.00;;;1.85;;
60979;SDS011;46851;49.160;8.980;2022-10-16T07:50:02;2.20;;;1.98;;
60979;SDS011;46851;49.160;8.980;2022-10-16T07:52:28;5.28;;;2.70;;
60979;SDS011;46851;49.160;8.980;2022-10-16T07:54:54;12.80;;;5.80;;
60979;SDS011;46851;49.160;8.980;2022-10-16T07:57:20;6.07;;;3.13;;
60979;SDS011;46851;49.160;8.980;2022-10-16T07:59:46;9.80;;;3.65;;
60979;SDS011;46851;49.160;8.980;2022-10-16T08:02:12;10.00;;;4.32;;
60979;SDS011;46851;49.160;8.980;2022-10-16T08:04:38;5.18;;;1.80;;
60979;SDS011;46851;49.160;8.980;2022-10-16T08:07:04;8.98;;;1.70;;
60979;SDS011;46851;49.160;8.980;2022-10-16T08:09:30;8.13;;;1.67;;
60979;SDS011;46851;49.160;8.980;2022-10-16T08:11:56;3.53;;;1.23;;
60979;SDS011;46851;49.160;8.980;2022-10-16T08:14:22;1.90;;;1.20;;
60979;SDS011;46851;49.160;8.980;2022-10-16T08:16:48;3.25;;;1.30;;
60979;SDS011;46851;49.160;8.980;2022-10-16T08:19:14;3.22;;;1.38;;
60979;SDS011;46851;49.160;8.980;2022-10-16T08:21:40;3.85;;;1.80;;
60979;SDS011;46851;49.160;8.980;2022-10-16T08:24:06;3.30;;;2.40;;
60979;SDS011;46851;49.160;8.980;2022-10-16T08:29:43;5.47;;;1.70;;
60979;SDS011;46851;49.160;8.980;2022-10-16T08:32:09;4.30;;;1.25;;
60979;SDS011;46851;49.160;8.980;2022-10-16T08:37:31;5.72;;;1.20;;
60979;SDS011;46851;49.160;8.980;2022-10-16T08:40:00;5.57;;;1.90;;
60979;SDS011;46851;49.160;8.980;2022-10-16T08:47:57;8.50;;;2.10;;
60979;SDS011;46851;49.160;8.980;2022-10-16T08:50:27;7.50;;;3.17;;
60979;SDS011;46851;49.160;8.980;2022-10-16T08:52:53;4.78;;;1.38;;
60979;SDS011;46851;49.160;8.980;2022-10-16T08:55:30;4.70;;;1.20;;
60979;SDS011;46851;49.160;8.980;2022-10-16T08:57:57;3.25;;;1.00;;
60979;SDS011;46851;49.160;8.980;2022-10-16T09:00:23;3.92;;;1.35;;
60979;SDS011;46851;49.160;8.980;2022-10-16T09:03:04;3.10;;;1.20;;
60979;SDS011;46851;49.160;8.980;2022-10-16T09:05:48;6.25;;;1.30;;
60979;SDS011;46851;49.160;8.980;2022-10-16T09:10:54;3.10;;;1.30;;
60979;SDS011;46851;49.160;8.980;2022-10-16T09:13:29;8.10;;;1.30;;
60979;SDS011;46851;49.160;8.980;2022-10-16T09:15:59;4.75;;;1.55;;
60979;SDS011;46851;49.160;8.980;2022-10-16T09:23:53;3.58;;;1.20;;
60979;SDS011;46851;49.160;8.980;2022-10-16T09:26:19;3.90;;;1.30;;
60979;SDS011;46851;49.160;8.980;2022-10-16T09:28:47;3.50;;;1.20;;
60979;SDS011;46851;49.160;8.980;2022-10-16T09:31:17;11.98;;;1.30;;
60979;SDS011;46851;49.160;8.980;2022-10-16T09:33:43;4.05;;;1.30;;
60979;SDS011;46851;49.160;8.980;2022-10-16T09:36:10;2.22;;;1.10;;
60979;SDS011;46851;49.160;8.980;2022-10-16T09:38:37;1.25;;;1.05;;
60979;SDS011;46851;49.160;8.980;2022-10-16T09:41:24;1.75;;;1.10;;
60979;SDS011;46851;49.160;8.980;2022-10-16T09:43:59;2.05;;;1.00;;
60979;SDS011;46851;49.160;8.980;2022-10-16T09:48:56;2.72;;;1.05;;
60979;SDS011;46851;49.160;8.980;2022-10-16T09:51:27;2.67;;;1.08;;
60979;SDS011;46851;49.160;8.980;2022-10-16T09:53:54;2.08;;;0.95;;
60979;SDS011;46851;49.160;8.980;2022-10-16T09:56:25;1.10;;;0.90;;
60979;SDS011;46851;49.160;8.980;2022-10-16T09:58:52;4.47;;;1.27;;
60979;SDS011;46851;49.160;8.980;2022-10-16T10:01:19;2.70;;;1.30;;
60979;SDS011;46851;49.160;8.980;2022-10-16T10:03:45;4.40;;;1.17;;
60979;SDS011;46851;49.160;8.980;2022-10-16T10:06:25;1.20;;;0.90;;
60979;SDS011;46851;49.160;8.980;2022-10-16T10:14:18;1.08;;;0.68;;
60979;SDS011;46851;49.160;8.980;2022-10-16T10:16:44;2.17;;;1.20;;
60979;SDS011;46851;49.160;8.980;2022-10-16T10:19:18;3.10;;;0.80;;
60979;SDS011;46851;49.160;8.980;2022-10-16T10:21:44;1.92;;;1.02;;
60979;SDS011;46851;49.160;8.980;2022-10-16T10:24:11;1.73;;;1.00;;
60979;SDS011;46851;49.160;8.980;2022-10-16T10:26:37;3.55;;;1.10;;
60979;SDS011;46851;49.160;8.980;2022-10-16T10:29:12;1.70;;;1.00;;
60979;SDS011;46851;49.160;8.980;2022-10-16T10:31:46;5.47;;;1.13;;
60979;SDS011;46851;49.160;8.980;2022-10-16T10:47:55;5.50;;;1.60;;
60979;SDS011;46851;49.160;8.980;2022-10-16T10:55:26;2.15;;;0.85;;
60979;SDS011;46851;49.160;8.980;2022-10-16T11:00:27;4.68;;;0.95;;
60979;SDS011;46851;49.160;8.980;2022-10-16T11:07:51;1.42;;;0.90;;
60979;SDS011;46851;49.160;8.980;2022-10-16T11:10:20;1.50;;;0.80;;
60979;SDS011;46851;49.160;8.980;2022-10-16T11:12:47;2.83;;;0.90;;
60979;SDS011;46851;49.160;8.980;2022-10-16T11:15:19;3.03;;;0.82;;
60979;SDS011;46851;49.160;8.980;2022-10-16T11:20:25;4.57;;;1.10;;
60979;SDS011;46851;49.160;8.980;2022-10-16T11:23:13;0.80;;;0.80;;
60979;SDS011;46851;49.160;8.980;2022-10-16T11:25:40;3.15;;;0.70;;
60979;SDS011;46851;49.160;8.980;2022-10-16T11:28:13;1.48;;;0.95;;
60979;SDS011;46851;49.160;8.980;2022-10-16T11:30:44;3.88;;;0.80;;
60979;SDS011;46851;49.160;8.980;2022-10-16T11:35:42;1.33;;;0.80;;
60979;SDS011;46851;49.160;8.980;2022-10-16T11:40:58;3.22;;;1.05;;
60979;SDS011;46851;49.160;8.980;2022-10-16T11:43:29;2.75;;;0.90;;
60979;SDS011;46851;49.160;8.980;2022-10-16T11:45:58;1.65;;;0.70;;
60979;SDS011;46851;49.160;8.980;2022-10-16T11:48:30;2.63;;;1.13;;
60979;SDS011;46851;49.160;8.980;2022-10-16T11:51:05;4.03;;;1.20;;
60979;SDS011;46851;49.160;8.980;2022-10-16T11:56:19;2.20;;;1.00;;
60979;SDS011;46851;49.160;8.980;2022-10-16T12:01:33;11.85;;;1.88;;
60979;SDS011;46851;49.160;8.980;2022-10-16T12:04:26;4.43;;;1.23;;
60979;SDS011;46851;49.160;8.980;2022-10-16T12:07:01;3.78;;;0.95;;
60979;SDS011;46851;49.160;8.980;2022-10-16T12:09:29;3.00;;;1.13;;
60979;SDS011;46851;49.160;8.980;2022-10-16T12:11:56;2.38;;;0.88;;
60979;SDS011;46851;49.160;8.980;2022-10-16T12:16:59;2.55;;;1.05;;
60979;SDS011;46851;49.160;8.980;2022-10-16T12:19:27;4.13;;;1.05;;
60979;SDS011;46851;49.160;8.980;2022-10-16T12:21:55;2.17;;;1.02;;
60979;SDS011;46851;49.160;8.980;2022-10-16T12:24:38;2.95;;;0.85;;
60979;SDS011;46851;49.160;8.980;2022-10-16T12:27:19;4.25;;;1.17;;
60979;SDS011;46851;49.160;8.980;2022-10-16T12:29:48;2.00;;;0.88;;
60979;SDS011;46851;49.160;8.980;2022-10-16T12:32:23;3.67;;;1.40;;
60979;SDS011;46851;49.160;8.980;2022-10-16T12:34:50;3.25;;;1.50;;
60979;SDS011;46851;49.160;8.980;2022-10-16T12:37:26;5.13;;;1.20;;
60979;SDS011;46851;49.160;8.980;2022-10-16T12:39:53;3.20;;;1.70;;
60979;SDS011;46851;49.160;8.980;2022-10-16T12:44:52;5.78;;;1.10;;
60979;SDS011;46851;49.160;8.980;2022-10-16T12:47:23;2.03;;;1.00;;
60979;SDS011;46851;49.160;8.980;2022-10-16T12:49:53;3.03;;;1.30;;
60979;SDS011;46851;49.160;8.980;2022-10-16T12:52:35;2.83;;;1.33;;
60979;SDS011;46851;49.160;8.980;2022-10-16T12:55:02;2.80;;;1.48;;
60979;SDS011;46851;49.160;8.980;2022-10-16T12:57:36;4.15;;;1.00;;
60979;SDS011;46851;49.160;8.980;2022-10-16T13:02:43;5.95;;;1.20;;
60979;SDS011;46851;49.160;8.980;2022-10-16T13:15:54;2.60;;;1.08;;
60979;SDS011;46851;49.160;8.980;2022-10-16T13:23:40;2.08;;;0.95;;
60979;SDS011;46851;49.160;8.980;2022-10-16T13:28:47;3.50;;;1.40;;
60979;SDS011;46851;49.160;8.980;2022-10-16T13:31:20;2.83;;;1.10;;
60979;SDS011;46851;49.160;8.980;2022-10-16T13:33:48;2.15;;;1.00;;
60979;SDS011;46851;49.160;8.980;2022-10-16T13:36:24;4.65;;;1.10;;
60979;SDS011;46851;49.160;8.980;2022-10-16T13:39:01;3.45;;;1.38;;
60979;SDS011;46851;49.160;8.980;2022-10-16T13:41:32;4.65;;;1.20;;
60979;SDS011;46851;49.160;8.980;2022-10-16T13:43:58;3.92;;;1.20;;
60979;SDS011;46851;49.160;8.980;2022-10-16T13:46:25;3.00;;;1.73;;
60979;SDS011;46851;49.160;8.980;2022-10-16T13:51:23;2.97;;;1.83;;
60979;SDS011;46851;49.160;8.980;2022-10-16T13:53:49;5.97;;;1.52;;
60979;SDS011;46851;49.160;8.980;2022-10-16T13:56:17;2.35;;;1.50;;
60979;SDS011;46851;49.160;8.980;2022-10-16T13:58:43;4.28;;;1.60;;
60979;SDS011;46851;49.160;8.980;2022-10-16T14:03:44;1.88;;;1.10;;
60979;SDS011;46851;49.160;8.980;2022-10-16T14:06:12;2.58;;;1.50;;
60979;SDS011;46851;49.160;8.980;2022-10-16T14:08:41;3.97;;;1.63;;
60979;SDS011;46851;49.160;8.980;2022-10-16T14:11:08;4.10;;;1.42;;
60979;SDS011;46851;49.160;8.980;2022-10-16T14:13:36;4.85;;;1.45;;
60979;SDS011;46851;49.160;8.980;2022-10-16T14:16:05;4.90;;;1.45;;
60979;SDS011;46851;49.160;8.980;2022-10-16T14:18:32;3.67;;;1.40;;
60979;SDS011;46851;49.160;8.980;2022-10-16T14:21:02;1.98;;;1.10;;
60979;SDS011;46851;49.160;8.980;2022-10-16T14:23:30;5.72;;;1.30;;
60979;SDS011;46851;49.160;8.980;2022-10-16T14:28:34;3.28;;;1.10;;
60979;SDS011;46851;49.160;8.980;2022-10-16T14:31:01;2.20;;;1.10;;
60979;SDS011;46851;49.160;8.980;2022-10-16T14:36:05;6.40;;;1.38;;
60979;SDS011;46851;49.160;8.980;2022-10-16T14:38:31;8.25;;;2.10;;
60979;SDS011;46851;49.160;8.980;2022-10-16T14:40:58;3.10;;;1.58;;
60979;SDS011;46851;49.160;8.980;2022-10-16T14:43:34;3.28;;;1.27;;
60979;SDS011;46851;49.160;8.980;2022-10-16T14:46:02;10.60;;;1.50;;
60979;SDS011;46851;49.160;8.980;2022-10-16T14:48:28;4.20;;;1.40;;
60979;SDS011;46851;49.160;8.980;2022-10-16T14:50:55;2.45;;;1.40;;
60979;SDS011;46851;49.160;8.980;2022-10-16T14:53:21;2.97;;;0.95;;
60979;SDS011;46851;49.160;8.980;2022-10-16T14:55:47;4.28;;;1.45;;
60979;SDS011;46851;49.160;8.980;2022-10-16T14:58:22;5.72;;;1.20;;
60979;SDS011;46851;49.160;8.980;2022-10-16T15:00:50;1.23;;;1.05;;
60979;SDS011;46851;49.160;8.980;2022-10-16T15:03:16;3.72;;;1.20;;
60979;SDS011;46851;49.160;8.980;2022-10-16T15:05:42;6.40;;;1.38;;
60979;SDS011;46851;49.160;8.980;2022-10-16T15:08:08;2.83;;;1.30;;
60979;SDS011;46851;49.160;8.980;2022-10-16T15:10:37;5.75;;;1.60;;
60979;SDS011;46851;49.160;8.980;2022-10-16T15:13:04;7.32;;;1.70;;
60979;SDS011;46851;49.160;8.980;2022-10-16T15:15:32;4.25;;;1.40;;
60979;SDS011;46851;49.160;8.980;2022-10-16T15:17:59;3.78;;;1.15;;
60979;SDS011;46851;49.160;8.980;2022-10-16T15:20:30;2.65;;;1.20;;
60979;SDS011;46851;49.160;8.980;2022-10-16T15:22:58;1.75;;;1.27;;
60979;SDS011;46851;49.160;8.980;2022-10-16T15:25:29;8.20;;;1.75;;
60979;SDS011;46851;49.160;8.980;2022-10-16T15:27:57;2.75;;;1.50;;
60979;SDS011;46851;49.160;8.980;2022-10-16T15:30:23;3.92;;;2.00;;
60979;SDS011;46851;49.160;8.980;2022-10-16T15:32:49;3.90;;;1.80;;
60979;SDS011;46851;49.160;8.980;2022-10-16T15:35:15;6.88;;;2.67;;
60979;SDS011;46851;49.160;8.980;2022-10-16T15:37:41;6.88;;;3.53;;
60979;SDS011;46851;49.160;8.980;2022-10-16T15:40:08;7.35;;;2.92;;
60979;SDS011;46851;49.160;8.980;2022-10-16T15:42:34;4.15;;;1.77;;
60979;SDS011;46851;49.160;8.980;2022-10-16T15:45:00;5.78;;;2.03;;
60979;SDS011;46851;49.160;8.980;2022-10-16T15:47:26;4.82;;;1.80;;
60979;SDS011;46851;49.160;8.980;2022-10-16T15:49:52;6.38;;;2.42;;
60979;SDS011;46851;49.160;8.980;2022-10-16T15:52:18;2.83;;;1.80;;
60979;SDS011;46851;49.160;8.980;2022-10-16T15:54:44;7.90;;;3.88;;
60979;SDS011;46851;49.160;8.980;2022-10-16T15:57:10;9.80;;;3.72;;
60979;SDS011;46851;49.160;8.980;2022-10-16T15:59:36;5.55;;;2.15;;
60979;SDS011;46851;49.160;8.980;2022-10-16T16:02:02;3.67;;;1.83;;
60979;SDS011;46851;49.160;8.980;2022-10-16T16:04:31;5.63;;;1.65;;
60979;SDS011;46851;49.160;8.980;2022-10-16T16:06:57;2.47;;;1.52;;
60979;SDS011;46851;49.160;8.980;2022-10-16T16:09:23;2.30;;;1.60;;
60979;SDS011;46851;49.160;8.980;2022-10-16T16:11:49;4.65;;;1.75;;
60979;SDS011;46851;49.160;8.980;2022-10-16T16:14:17;3.45;;;1.42;;
60979;SDS011;46851;49.160;8.980;2022-10-16T16:16:43;8.98;;;1.80;;
60979;SDS011;46851;49.160;8.980;2022-10-16T16:19:09;3.58;;;1.70;;
60979;SDS011;46851;49.160;8.980;2022-10-16T16:21:35;4.47;;;2.28;;
60979;SDS011;46851;49.160;8.980;2022-10-16T16:24:01;6.25;;;2.67;;
60979;SDS011;46851;49.160;8.980;2022-10-16T16:26:33;5.80;;;2.38;;
60979;SDS011;46851;49.160;8.980;2022-10-16T16:29:04;2.65;;;1.88;;
60979;SDS011;46851;49.160;8.980;2022-10-16T16:31:30;4.47;;;1.60;;
60979;SDS011;46851;49.160;8.980;2022-10-16T16:33:57;6.65;;;2.15;;
60979;SDS011;46851;49.160;8.980;2022-10-16T16:36:24;4.03;;;2.08;;
60979;SDS011;46851;49.160;8.980;2022-10-16T16:38:50;6.57;;;2.88;;
60979;SDS011;46851;49.160;8.980;2022-10-16T16:41:17;5.43;;;3.05;;
60979;SDS011;46851;49.160;8.980;2022-10-16T16:43:44;8.50;;;3.35;;
60979;SDS011;46851;49.160;8.980;2022-10-16T16:46:10;5.88;;;3.38;;
60979;SDS011;46851;49.160;8.980;2022-10-16T16:48:36;7.65;;;4.60;;
60979;SDS011;46851;49.160;8.980;2022-10-16T16:51:06;10.13;;;4.88;;